Time;durP1;ratioP1;P1;durP2;ratioP2;P2;SDS_P1;SDS_P2;PMS_P1;PMS_P2;Temp;Humidity;BMP_temperature;BMP_pressure;BME280_temperature;BME280_humidity;BME280_pressure;Samples;Min_cycle;Max_cycle;Signal;HPM_P1;HPM_P2
2021/06/29 00:02:18;;;;;;;14.77;6.20;;;;;;;;;;5060247;28;20492;-71
2021/06/29 00:04:46;;;;;;;15.10;5.30;;;;;;;;;;5064016;28;20055;-71
2021/06/29 00:07:12;;;;;;;14.10;5.95;;;;;;;;;;5066425;28;20058;-72
2021/06/29 00:09:39;;;;;;;19.00;5.45;;;;;;;;;;5067207;28;20143;-71
2021/06/29 00:12:05;;;;;;;16.15;5.78;;;;;;;;;;5048217;28;20361;-71
2021/06/29 00:14:55;;;;;;;15.63;5.18;;;;;;;;;;5060267;28;20036;-71
2021/06/29 00:17:22;;;;;;;19.65;6.25;;;;;;;;;;5044499;28;20142;-72
2021/06/29 00:19:48;;;;;;;14.48;5.47;;;;;;;;;;5066062;28;20091;-72
2021/06/29 00:22:14;;;;;;;14.05;4.95;;;;;;;;;;5064299;28;20151;-71
2021/06/29 00:24:40;;;;;;;16.50;5.43;;;;;;;;;;5063682;28;20146;-72
2021/06/29 00:27:07;;;;;;;15.38;4.70;;;;;;;;;;5046491;28;20053;-72
2021/06/29 00:29:33;;;;;;;21.27;5.80;;;;;;;;;;5067135;28;20095;-71
2021/06/29 00:31:59;;;;;;;14.18;5.50;;;;;;;;;;5067145;28;20102;-71
2021/06/29 00:34:25;;;;;;;15.20;5.30;;;;;;;;;;5063753;28;20149;-71
2021/06/29 00:36:52;;;;;;;13.57;6.25;;;;;;;;;;5062064;28;20127;-71
2021/06/29 00:39:18;;;;;;;17.15;6.10;;;;;;;;;;5066265;28;20060;-71
2021/06/29 00:41:45;;;;;;;19.15;5.93;;;;;;;;;;5062159;28;20132;-71
2021/06/29 00:44:18;;;;;;;14.98;6.15;;;;;;;;;;5067245;28;20062;-72
2021/06/29 00:46:45;;;;;;;16.55;5.43;;;;;;;;;;5044066;28;20063;-71
2021/06/29 00:49:11;;;;;;;14.65;4.85;;;;;;;;;;5067930;28;20110;-71
2021/06/29 00:51:37;;;;;;;14.25;4.93;;;;;;;;;;5065804;28;20067;-71
2021/06/29 00:54:04;;;;;;;12.25;5.03;;;;;;;;;;5066585;28;20116;-71
2021/06/29 00:56:32;;;;;;;15.75;5.28;;;;;;;;;;5059671;28;20068;-71
2021/06/29 00:58:59;;;;;;;15.65;6.28;;;;;;;;;;5058704;28;20042;-71
2021/06/29 01:01:26;;;;;;;19.50;6.22;;;;;;;;;;5062996;28;20112;-71
2021/06/29 01:03:52;;;;;;;18.25;5.30;;;;;;;;;;5066651;28;20098;-71
2021/06/29 01:06:19;;;;;;;15.93;5.60;;;;;;;;;;5067665;28;20052;-71
2021/06/29 01:08:45;;;;;;;12.60;6.00;;;;;;;;;;5059443;28;20488;-71
2021/06/29 01:11:13;;;;;;;20.08;5.72;;;;;;;;;;5066456;28;20051;-71
2021/06/29 01:13:42;;;;;;;16.83;5.63;;;;;;;;;;5065419;28;20106;-71
2021/06/29 01:16:08;;;;;;;16.52;5.30;;;;;;;;;;5058922;28;20118;-71
2021/06/29 01:18:35;;;;;;;19.33;6.22;;;;;;;;;;5060404;28;20048;-71
2021/06/29 01:21:02;;;;;;;17.95;5.93;;;;;;;;;;5041760;28;20123;-71
2021/06/29 01:23:29;;;;;;;17.10;6.53;;;;;;;;;;5063083;28;20055;-72
2021/06/29 01:26:16;;;;;;;17.95;6.28;;;;;;;;;;5065340;28;20041;-71
2021/06/29 01:28:52;;;;;;;28.77;7.38;;;;;;;;;;5060471;28;20041;-71
2021/06/29 01:31:18;;;;;;;20.88;7.35;;;;;;;;;;5061354;28;20037;-71
2021/06/29 01:33:47;;;;;;;22.52;6.22;;;;;;;;;;5062432;28;20041;-71
2021/06/29 01:36:15;;;;;;;21.73;6.78;;;;;;;;;;5064108;28;20506;-71
2021/06/29 01:38:41;;;;;;;19.55;6.82;;;;;;;;;;5066417;28;20063;-71
2021/06/29 01:41:07;;;;;;;16.38;6.10;;;;;;;;;;5067147;28;20048;-71
2021/06/29 01:43:38;;;;;;;23.73;6.95;;;;;;;;;;5063783;28;20373;-71
2021/06/29 01:46:04;;;;;;;22.90;7.95;;;;;;;;;;5066089;28;20055;-71
2021/06/29 01:48:30;;;;;;;28.67;9.43;;;;;;;;;;5066677;28;20119;-71
2021/06/29 01:50:57;;;;;;;30.73;8.13;;;;;;;;;;5064927;28;20059;-71
2021/06/29 01:53:23;;;;;;;31.83;8.95;;;;;;;;;;5063246;28;20048;-71
2021/06/29 01:55:50;;;;;;;26.65;7.50;;;;;;;;;;5066648;28;20653;-71
2021/06/29 01:58:24;;;;;;;29.90;9.45;;;;;;;;;;5063737;28;20377;-71
2021/06/29 02:00:51;;;;;;;23.42;8.45;;;;;;;;;;5059640;28;20051;-71
2021/06/29 02:03:17;;;;;;;32.45;8.57;;;;;;;;;;5043194;28;20036;-71
2021/06/29 02:05:43;;;;;;;23.98;7.65;;;;;;;;;;5066080;28;20068;-71
2021/06/29 02:08:10;;;;;;;28.65;8.25;;;;;;;;;;5066295;28;20124;-71
2021/06/29 02:10:36;;;;;;;26.40;7.88;;;;;;;;;;5065440;28;20041;-71
2021/06/29 02:13:02;;;;;;;24.02;7.93;;;;;;;;;;5063532;28;20507;-71
2021/06/29 02:15:29;;;;;;;27.63;8.32;;;;;;;;;;5055014;28;20076;-71
2021/06/29 02:17:55;;;;;;;25.45;8.10;;;;;;;;;;5057006;28;20037;-71
2021/06/29 02:20:21;;;;;;;25.48;8.27;;;;;;;;;;5065868;28;20135;-72
2021/06/29 02:22:49;;;;;;;27.55;7.68;;;;;;;;;;5062412;28;20570;-71
2021/06/29 02:25:15;;;;;;;27.08;8.18;;;;;;;;;;5063166;28;20344;-71
2021/06/29 02:27:41;;;;;;;22.05;6.90;;;;;;;;;;5046908;28;20041;-71
2021/06/29 02:30:08;;;;;;;25.20;8.18;;;;;;;;;;5069487;28;20074;-71
2021/06/29 02:32:34;;;;;;;27.70;7.97;;;;;;;;;;5067105;28;20400;-71
2021/06/29 02:35:00;;;;;;;24.55;9.00;;;;;;;;;;5066644;28;20457;-71
2021/06/29 02:37:27;;;;;;;22.45;7.90;;;;;;;;;;5070859;28;20056;-72
2021/06/29 02:39:53;;;;;;;28.80;8.73;;;;;;;;;;5069812;28;20055;-71
2021/06/29 02:42:19;;;;;;;22.63;7.63;;;;;;;;;;5066247;28;20483;-72
2021/06/29 02:44:47;;;;;;;22.15;7.72;;;;;;;;;;5067326;28;20143;-71
2021/06/29 02:47:15;;;;;;;23.95;8.05;;;;;;;;;;5045019;28;20468;-71
2021/06/29 02:49:41;;;;;;;20.10;6.95;;;;;;;;;;5044600;28;20037;-71
2021/06/29 02:52:07;;;;;;;29.15;8.45;;;;;;;;;;5046856;28;20069;-72
2021/06/29 02:54:34;;;;;;;25.55;8.68;;;;;;;;;;5049077;28;20512;-71
2021/06/29 02:57:00;;;;;;;25.00;8.75;;;;;;;;;;5048522;28;20045;-71
2021/06/29 02:59:27;;;;;;;28.75;8.68;;;;;;;;;;5047966;28;20064;-71
2021/06/29 03:01:53;;;;;;;24.20;8.27;;;;;;;;;;5047256;28;20037;-71
2021/06/29 03:04:20;;;;;;;20.50;8.32;;;;;;;;;;5046245;28;20045;-71
2021/06/29 03:06:46;;;;;;;23.38;7.93;;;;;;;;;;5047508;28;20068;-71
2021/06/29 03:09:12;;;;;;;28.52;9.93;;;;;;;;;;5048945;28;20044;-71
2021/06/29 03:11:39;;;;;;;36.40;9.80;;;;;;;;;;5048548;28;20041;-71
2021/06/29 03:14:05;;;;;;;30.75;9.50;;;;;;;;;;5043019;28;20135;-72
2021/06/29 03:16:31;;;;;;;26.92;9.05;;;;;;;;;;5041670;28;20064;-72
2021/06/29 03:18:59;;;;;;;24.48;8.38;;;;;;;;;;5046488;28;20047;-71
2021/06/29 03:21:25;;;;;;;32.25;9.75;;;;;;;;;;5042649;28;20037;-71
2021/06/29 03:23:52;;;;;;;30.58;9.18;;;;;;;;;;5047386;28;20397;-71
2021/06/29 03:26:19;;;;;;;27.35;10.55;;;;;;;;;;5046750;28;20127;-71
2021/06/29 03:28:45;;;;;;;33.25;10.63;;;;;;;;;;5044777;28;20590;-71
2021/06/29 03:31:11;;;;;;;31.63;11.70;;;;;;;;;;5047530;28;20064;-71
2021/06/29 03:33:38;;;;;;;30.38;11.60;;;;;;;;;;5044899;28;20072;-71
2021/06/29 03:36:04;;;;;;;29.55;11.93;;;;;;;;;;5026839;28;20033;-71
2021/06/29 03:38:30;;;;;;;28.30;9.85;;;;;;;;;;5045384;28;20080;-71
2021/06/29 03:40:57;;;;;;;36.05;10.40;;;;;;;;;;5041223;28;20068;-71
2021/06/29 03:43:23;;;;;;;28.50;9.52;;;;;;;;;;5027425;28;20061;-71
2021/06/29 03:45:50;;;;;;;28.38;9.70;;;;;;;;;;5042725;28;20397;-71
2021/06/29 03:48:16;;;;;;;24.70;9.90;;;;;;;;;;5044930;28;20037;-71
2021/06/29 03:50:42;;;;;;;29.75;9.40;;;;;;;;;;5048005;28;20449;-71
2021/06/29 03:53:09;;;;;;;29.77;8.95;;;;;;;;;;5044210;28;20029;-71
2021/06/29 03:55:35;;;;;;;23.25;8.18;;;;;;;;;;5044655;28;20171;-72
2021/06/29 03:58:02;;;;;;;28.88;9.73;;;;;;;;;;5045130;28;20037;-71
2021/06/29 04:00:28;;;;;;;30.00;9.95;;;;;;;;;;5046038;28;20111;-71
2021/06/29 04:02:54;;;;;;;24.30;8.45;;;;;;;;;;5026047;28;20047;-71
2021/06/29 04:05:20;;;;;;;27.73;8.57;;;;;;;;;;5045855;28;20614;-71
2021/06/29 04:07:47;;;;;;;26.98;9.57;;;;;;;;;;5047420;28;20041;-71
2021/06/29 04:10:14;;;;;;;28.13;8.77;;;;;;;;;;5046634;28;20053;-71
2021/06/29 04:12:40;;;;;;;28.55;8.43;;;;;;;;;;5046399;28;20392;-71
2021/06/29 04:15:07;;;;;;;34.80;9.50;;;;;;;;;;5042584;28;20060;-71
2021/06/29 04:17:34;;;;;;;20.65;8.30;;;;;;;;;;5045317;28;20045;-71
2021/06/29 04:20:00;;;;;;;33.05;9.35;;;;;;;;;;5046411;28;20037;-71
2021/06/29 04:22:26;;;;;;;33.22;9.65;;;;;;;;;;5045207;28;20036;-71
2021/06/29 04:24:53;;;;;;;25.85;8.77;;;;;;;;;;5044414;28;20041;-71
2021/06/29 04:27:22;;;;;;;25.90;8.25;;;;;;;;;;5047941;28;20065;-71
2021/06/29 04:29:49;;;;;;;35.40;9.52;;;;;;;;;;5045194;28;20052;-71
2021/06/29 04:32:15;;;;;;;29.20;8.50;;;;;;;;;;5043187;28;20048;-72
2021/06/29 04:34:41;;;;;;;27.38;8.13;;;;;;;;;;5009970;28;20056;-71
2021/06/29 04:37:08;;;;;;;34.65;9.43;;;;;;;;;;5044513;28;20441;-71
2021/06/29 04:39:34;;;;;;;32.97;8.73;;;;;;;;;;5041701;28;20045;-71
2021/06/29 04:42:01;;;;;;;30.05;9.00;;;;;;;;;;5050379;28;20099;-71
2021/06/29 04:44:27;;;;;;;30.10;8.63;;;;;;;;;;5046436;28;20048;-71
2021/06/29 04:46:56;;;;;;;31.15;10.20;;;;;;;;;;5054008;28;20053;-71
2021/06/29 04:49:27;;;;;;;33.53;9.63;;;;;;;;;;5058647;28;20040;-71
2021/06/29 04:51:53;;;;;;;34.38;9.20;;;;;;;;;;5053572;28;20045;-71
2021/06/29 04:54:19;;;;;;;32.22;9.32;;;;;;;;;;5039089;28;20040;-71
2021/06/29 04:56:46;;;;;;;29.13;9.45;;;;;;;;;;5048061;28;20044;-71
2021/06/29 04:59:12;;;;;;;37.72;10.55;;;;;;;;;;5046445;28;20076;-71
2021/06/29 05:01:38;;;;;;;36.55;11.05;;;;;;;;;;5048975;28;20037;-71
2021/06/29 05:04:04;;;;;;;30.25;9.18;;;;;;;;;;5046336;28;20436;-71
2021/06/29 05:06:31;;;;;;;29.23;8.90;;;;;;;;;;5042192;28;20049;-71
2021/06/29 05:08:57;;;;;;;25.92;8.95;;;;;;;;;;5046043;28;20051;-72
2021/06/29 05:11:23;;;;;;;28.77;10.05;;;;;;;;;;5044399;28;20049;-73
2021/06/29 05:13:49;;;;;;;33.53;10.02;;;;;;;;;;5043650;28;20127;-72
2021/06/29 05:16:16;;;;;;;27.23;9.55;;;;;;;;;;5042754;28;20041;-72
2021/06/29 05:18:42;;;;;;;31.70;9.60;;;;;;;;;;5043753;28;20094;-72
2021/06/29 05:21:08;;;;;;;30.58;10.57;;;;;;;;;;5046105;28;20037;-72
2021/06/29 05:23:36;;;;;;;43.13;10.27;;;;;;;;;;5043823;28;20095;-72
2021/06/29 05:26:03;;;;;;;32.53;10.50;;;;;;;;;;5052799;28;20385;-72
2021/06/29 05:28:29;;;;;;;45.13;10.70;;;;;;;;;;5045428;28;20079;-73
2021/06/29 05:30:56;;;;;;;34.20;10.77;;;;;;;;;;5046300;28;20057;-72
2021/06/29 05:33:22;;;;;;;34.58;11.25;;;;;;;;;;5009238;28;20083;-72
2021/06/29 05:35:49;;;;;;;32.20;9.95;;;;;;;;;;5025164;28;20041;-72
2021/06/29 05:38:15;;;;;;;34.55;11.38;;;;;;;;;;5044923;28;20056;-72
2021/06/29 05:40:41;;;;;;;35.55;10.13;;;;;;;;;;5046464;28;20048;-72
2021/06/29 05:43:07;;;;;;;32.47;9.95;;;;;;;;;;5045998;28;20041;-72
2021/06/29 05:45:34;;;;;;;33.08;9.63;;;;;;;;;;5046953;28;20499;-72
2021/06/29 05:48:01;;;;;;;37.33;10.30;;;;;;;;;;5044403;28;20056;-73
2021/06/29 05:50:27;;;;;;;26.00;8.65;;;;;;;;;;5044497;28;20115;-73
2021/06/29 05:52:53;;;;;;;35.97;10.20;;;;;;;;;;5044133;28;20044;-73
2021/06/29 05:55:20;;;;;;;34.67;9.40;;;;;;;;;;5044708;28;20053;-73
2021/06/29 05:57:46;;;;;;;30.40;9.38;;;;;;;;;;5044869;28;20128;-73
2021/06/29 06:00:14;;;;;;;40.83;10.88;;;;;;;;;;5044942;28;20037;-72
2021/06/29 06:02:40;;;;;;;31.60;10.18;;;;;;;;;;5042977;28;20051;-72
2021/06/29 06:05:07;;;;;;;34.30;10.30;;;;;;;;;;5046434;28;20049;-72
2021/06/29 06:07:34;;;;;;;37.53;10.90;;;;;;;;;;5044098;28;20067;-72
2021/06/29 06:10:00;;;;;;;32.60;10.05;;;;;;;;;;5044196;28;20623;-72
2021/06/29 06:12:26;;;;;;;38.78;10.15;;;;;;;;;;5044723;28;20131;-72
2021/06/29 06:14:53;;;;;;;31.52;10.75;;;;;;;;;;5027598;28;20139;-72
2021/06/29 06:17:19;;;;;;;35.92;10.88;;;;;;;;;;5039473;28;20033;-72
2021/06/29 06:19:46;;;;;;;36.08;10.35;;;;;;;;;;5044852;28;20044;-73
2021/06/29 06:22:12;;;;;;;33.92;10.18;;;;;;;;;;5023663;28;20505;-73
2021/06/29 06:24:38;;;;;;;33.72;10.73;;;;;;;;;;5041936;28;20132;-72
2021/06/29 06:27:08;;;;;;;34.53;10.15;;;;;;;;;;5044566;28;20048;-73
2021/06/29 06:29:34;;;;;;;40.90;10.93;;;;;;;;;;5026880;28;20053;-72
2021/06/29 06:32:01;;;;;;;34.65;10.65;;;;;;;;;;5043752;28;20524;-72
2021/06/29 06:34:27;;;;;;;29.35;10.52;;;;;;;;;;5029886;28;20056;-72
2021/06/29 06:36:53;;;;;;;39.25;10.70;;;;;;;;;;5044557;28;20048;-71
2021/06/29 06:39:20;;;;;;;31.50;9.32;;;;;;;;;;5047224;28;20044;-71
2021/06/29 06:41:46;;;;;;;44.28;10.52;;;;;;;;;;5049365;28;20440;-71
2021/06/29 06:44:12;;;;;;;33.72;10.90;;;;;;;;;;5044217;28;20084;-71
2021/06/29 06:46:38;;;;;;;37.97;9.20;;;;;;;;;;5038580;28;20068;-71
2021/06/29 06:49:05;;;;;;;25.35;10.30;;;;;;;;;;5061102;28;20053;-71
2021/06/29 06:51:32;;;;;;;37.47;10.57;;;;;;;;;;5054883;28;20114;-71
2021/06/29 06:53:58;;;;;;;38.42;10.57;;;;;;;;;;5059505;28;20064;-72
2021/06/29 06:56:25;;;;;;;43.05;9.85;;;;;;;;;;5063234;28;20037;-71
2021/06/29 06:58:52;;;;;;;37.20;9.35;;;;;;;;;;5063401;28;20048;-71
2021/06/29 07:01:19;;;;;;;37.58;9.75;;;;;;;;;;5064252;28;20051;-71
2021/06/29 07:03:45;;;;;;;34.97;10.00;;;;;;;;;;5069274;28;20049;-71
2021/06/29 07:06:13;;;;;;;29.63;10.45;;;;;;;;;;5068812;28;20044;-71
2021/06/29 07:08:40;;;;;;;36.50;10.07;;;;;;;;;;5069211;28;20127;-71
2021/06/29 07:11:07;;;;;;;32.85;10.05;;;;;;;;;;5062351;28;20100;-71
2021/06/29 07:13:34;;;;;;;29.08;10.13;;;;;;;;;;5049266;28;20076;-71
2021/06/29 07:16:01;;;;;;;38.80;10.68;;;;;;;;;;5068871;28;20091;-71
2021/06/29 07:18:27;;;;;;;28.42;9.10;;;;;;;;;;5050919;28;20060;-71
2021/06/29 07:20:53;;;;;;;33.40;9.35;;;;;;;;;;5068623;28;20041;-71
2021/06/29 07:23:20;;;;;;;38.05;11.63;;;;;;;;;;5070950;28;20090;-71
2021/06/29 07:25:46;;;;;;;40.10;10.85;;;;;;;;;;5068081;28;20115;-71
2021/06/29 07:28:13;;;;;;;33.58;10.88;;;;;;;;;;5064416;28;21556;-71
2021/06/29 07:30:40;;;;;;;36.10;10.10;;;;;;;;;;5067177;28;20052;-71
2021/06/29 07:33:06;;;;;;;38.75;11.48;;;;;;;;;;5069754;28;20040;-71
2021/06/29 07:35:33;;;;;;;37.35;10.55;;;;;;;;;;5065015;28;21505;-71
2021/06/29 07:38:00;;;;;;;42.28;11.38;;;;;;;;;;5067093;28;20036;-71
2021/06/29 07:40:26;;;;;;;40.83;11.95;;;;;;;;;;5065939;28;20436;-71
2021/06/29 07:42:55;;;;;;;39.63;10.73;;;;;;;;;;5066628;28;20045;-72
2021/06/29 07:45:22;;;;;;;45.92;12.23;;;;;;;;;;5068687;28;20531;-71
2021/06/29 07:47:49;;;;;;;33.28;10.75;;;;;;;;;;5065460;28;20476;-71
2021/06/29 07:50:15;;;;;;;36.78;11.93;;;;;;;;;;5067806;28;20044;-71
2021/06/29 07:52:42;;;;;;;41.65;11.65;;;;;;;;;;5069982;28;20094;-71
2021/06/29 07:55:08;;;;;;;39.15;11.05;;;;;;;;;;5050821;28;20042;-71
2021/06/29 07:57:34;;;;;;;40.47;12.57;;;;;;;;;;5065657;28;20070;-71
2021/06/29 08:00:00;;;;;;;41.55;12.50;;;;;;;;;;5059454;28;20049;-71
2021/06/29 08:02:27;;;;;;;45.95;12.35;;;;;;;;;;5068988;28;20060;-71
2021/06/29 08:04:53;;;;;;;45.92;12.05;;;;;;;;;;5067328;28;20049;-71
2021/06/29 08:07:19;;;;;;;37.70;11.63;;;;;;;;;;5065143;28;20051;-71
2021/06/29 08:09:45;;;;;;;47.58;11.82;;;;;;;;;;5062035;28;20049;-71
2021/06/29 08:12:11;;;;;;;42.78;12.15;;;;;;;;;;5066110;28;20136;-71
2021/06/29 08:14:38;;;;;;;43.58;11.82;;;;;;;;;;5067241;28;20372;-71
2021/06/29 08:17:06;;;;;;;35.50;10.40;;;;;;;;;;5061965;28;20041;-71
2021/06/29 08:19:33;;;;;;;40.85;11.52;;;;;;;;;;5066468;28;20045;-71
2021/06/29 08:21:59;;;;;;;37.72;13.00;;;;;;;;;;5068314;28;20083;-77
2021/06/29 08:24:25;;;;;;;40.30;13.27;;;;;;;;;;5060009;28;20113;-70
2021/06/29 08:26:51;;;;;;;43.97;12.80;;;;;;;;;;5068219;28;20036;-72
2021/06/29 08:29:18;;;;;;;40.60;12.00;;;;;;;;;;5065498;28;20071;-71
2021/06/29 08:31:44;;;;;;;38.70;12.18;;;;;;;;;;5063475;28;20051;-71
2021/06/29 08:34:10;;;;;;;43.28;11.80;;;;;;;;;;5067153;28;20431;-71
2021/06/29 08:36:41;;;;;;;38.88;12.27;;;;;;;;;;5066585;28;20044;-71
2021/06/29 08:39:08;;;;;;;48.17;13.57;;;;;;;;;;5068101;28;20140;-71
2021/06/29 08:41:35;;;;;;;35.58;12.05;;;;;;;;;;5070181;28;20068;-71
2021/06/29 08:44:01;;;;;;;34.63;13.48;;;;;;;;;;5069544;28;20040;-71
2021/06/29 08:46:28;;;;;;;41.47;13.55;;;;;;;;;;5069833;28;20056;-71
2021/06/29 08:48:54;;;;;;;46.78;13.10;;;;;;;;;;5070171;28;20041;-71
2021/06/29 08:51:21;;;;;;;42.05;14.50;;;;;;;;;;5065258;28;20033;-71
2021/06/29 08:53:47;;;;;;;35.15;13.18;;;;;;;;;;5070534;28;20044;-71
2021/06/29 08:56:15;;;;;;;40.60;14.63;;;;;;;;;;5066420;28;20062;-71
2021/06/29 08:58:42;;;;;;;37.30;13.70;;;;;;;;;;5063678;28;20044;-72
2021/06/29 09:01:08;;;;;;;37.42;12.93;;;;;;;;;;5065068;28;20045;-72
2021/06/29 09:03:34;;;;;;;46.97;13.30;;;;;;;;;;5042191;28;20056;-72
2021/06/29 09:06:00;;;;;;;34.50;13.45;;;;;;;;;;5061623;28;20345;-71
2021/06/29 09:08:27;;;;;;;37.22;12.90;;;;;;;;;;5059391;28;20104;-72
2021/06/29 09:11:14;;;;;;;34.42;13.07;;;;;;;;;;5062606;28;20139;-71
2021/06/29 09:13:40;;;;;;;34.40;13.55;;;;;;;;;;5061756;28;20040;-71
2021/06/29 09:16:07;;;;;;;36.72;14.15;;;;;;;;;;5061565;28;20130;-71
2021/06/29 09:18:35;;;;;;;31.83;14.88;;;;;;;;;;5061349;28;20516;-72
2021/06/29 09:21:06;;;;;;;34.88;12.57;;;;;;;;;;5059485;28;20495;-72
2021/06/29 09:23:34;;;;;;;38.85;13.85;;;;;;;;;;5056292;28;20044;-71
2021/06/29 09:26:08;;;;;;;43.90;14.90;;;;;;;;;;5058835;28;20128;-71
2021/06/29 09:28:36;;;;;;;38.55;14.73;;;;;;;;;;5057862;28;20080;-71
2021/06/29 09:31:04;;;;;;;50.92;15.80;;;;;;;;;;5065369;28;20051;-72
2021/06/29 09:33:32;;;;;;;36.35;14.27;;;;;;;;;;5056680;28;20064;-72
2021/06/29 09:35:59;;;;;;;42.95;15.35;;;;;;;;;;5060921;28;20219;-71
2021/06/29 09:38:26;;;;;;;55.03;15.88;;;;;;;;;;5060549;28;20044;-71
2021/06/29 09:40:54;;;;;;;41.78;15.43;;;;;;;;;;5059995;28;20408;-71
2021/06/29 09:43:20;;;;;;;44.70;16.33;;;;;;;;;;5060755;28;20048;-71
2021/06/29 09:45:50;;;;;;;39.40;15.90;;;;;;;;;;5059525;28;20067;-71
2021/06/29 09:48:18;;;;;;;40.08;16.60;;;;;;;;;;5056404;28;20044;-71
2021/06/29 09:50:47;;;;;;;43.58;16.33;;;;;;;;;;5060385;28;20076;-71
2021/06/29 09:53:15;;;;;;;44.20;16.00;;;;;;;;;;5059964;28;20081;-72
2021/06/29 09:55:42;;;;;;;45.08;16.63;;;;;;;;;;5059666;28;20045;-72
2021/06/29 09:58:10;;;;;;;36.67;15.15;;;;;;;;;;5057815;28;20056;-71
2021/06/29 10:00:45;;;;;;;45.05;16.33;;;;;;;;;;5058485;28;20041;-71
2021/06/29 10:03:20;;;;;;;42.78;15.43;;;;;;;;;;5058786;28;20036;-71
2021/06/29 10:05:46;;;;;;;48.97;16.42;;;;;;;;;;5063069;28;20048;-71
2021/06/29 10:08:27;;;;;;;50.33;16.40;;;;;;;;;;5037792;28;20040;-72
2021/06/29 10:11:07;;;;;;;47.05;17.23;;;;;;;;;;5046006;28;20182;-71
2021/06/29 10:13:36;;;;;;;41.53;14.88;;;;;;;;;;5047406;28;20052;-71
2021/06/29 10:16:03;;;;;;;43.38;17.08;;;;;;;;;;5047764;28;20376;-71
2021/06/29 10:18:31;;;;;;;39.95;16.08;;;;;;;;;;5052803;28;20067;-71
2021/06/29 10:21:01;;;;;;;41.85;16.33;;;;;;;;;;5060328;28;20448;-70
2021/06/29 10:23:28;;;;;;;42.08;18.67;;;;;;;;;;5058557;28;20051;-71
2021/06/29 10:25:54;;;;;;;44.28;16.80;;;;;;;;;;5058862;28;20056;-71
2021/06/29 10:28:21;;;;;;;48.88;17.45;;;;;;;;;;5055320;28;20033;-71
2021/06/29 10:30:47;;;;;;;51.70;17.45;;;;;;;;;;5058355;28;20112;-71
2021/06/29 10:33:14;;;;;;;47.75;17.55;;;;;;;;;;5057678;28;20119;-71
2021/06/29 10:35:42;;;;;;;53.55;18.20;;;;;;;;;;5041074;28;20048;-71
2021/06/29 10:38:10;;;;;;;44.63;17.10;;;;;;;;;;5057470;28;20128;-71
2021/06/29 10:40:36;;;;;;;44.97;17.83;;;;;;;;;;5057411;28;20045;-71
2021/06/29 10:43:02;;;;;;;52.42;18.92;;;;;;;;;;5057011;28;20052;-71
2021/06/29 10:45:35;;;;;;;56.80;18.50;;;;;;;;;;5058088;28;20059;-70
2021/06/29 10:48:17;;;;;;;47.65;17.83;;;;;;;;;;5044344;28;20052;-70
2021/06/29 10:50:44;;;;;;;46.45;18.52;;;;;;;;;;5064007;28;20036;-71
2021/06/29 10:53:29;;;;;;;50.72;17.77;;;;;;;;;;5064859;28;20588;-71
2021/06/29 10:55:56;;;;;;;51.80;18.27;;;;;;;;;;5065010;28;20051;-71
2021/06/29 10:58:40;;;;;;;50.50;17.60;;;;;;;;;;5067198;28;20064;-71
2021/06/29 11:01:23;;;;;;;41.00;15.95;;;;;;;;;;5065397;28;20037;-71
2021/06/29 11:03:50;;;;;;;44.90;17.45;;;;;;;;;;5061345;28;20157;-71
2021/06/29 11:06:43;;;;;;;50.33;17.42;;;;;;;;;;5059288;28;20530;-71
2021/06/29 11:09:10;;;;;;;51.92;16.58;;;;;;;;;;5060904;28;20037;-72
2021/06/29 11:11:36;;;;;;;58.40;17.05;;;;;;;;;;5053960;28;20126;-70
2021/06/29 11:14:02;;;;;;;62.60;17.02;;;;;;;;;;5072826;28;20086;-71
2021/06/29 11:16:47;;;;;;;53.65;16.90;;;;;;;;;;5072319;28;20238;-70
2021/06/29 11:19:13;;;;;;;48.45;17.42;;;;;;;;;;5072047;28;20057;-71
2021/06/29 11:21:39;;;;;;;48.85;18.05;;;;;;;;;;5073165;28;20116;-71
2021/06/29 11:24:32;;;;;;;44.72;17.27;;;;;;;;;;5054207;28;20040;-70
2021/06/29 11:26:59;;;;;;;41.57;15.53;;;;;;;;;;5068028;28;20049;-71
2021/06/29 11:29:36;;;;;;;46.17;15.73;;;;;;;;;;5072233;28;20036;-71
2021/06/29 11:32:21;;;;;;;46.83;16.63;;;;;;;;;;5059122;28;20163;-71
2021/06/29 11:34:47;;;;;;;53.17;16.88;;;;;;;;;;5056195;28;20071;-71
2021/06/29 11:37:14;;;;;;;49.42;16.40;;;;;;;;;;5067147;28;20047;-71
2021/06/29 11:39:40;;;;;;;45.20;17.08;;;;;;;;;;5066485;28;20064;-71
2021/06/29 11:42:09;;;;;;;39.33;15.07;;;;;;;;;;5070065;28;20127;-70
2021/06/29 11:44:37;;;;;;;42.17;15.20;;;;;;;;;;5068139;28;20040;-71
2021/06/29 11:47:06;;;;;;;34.92;14.93;;;;;;;;;;5051517;28;20049;-71
2021/06/29 11:49:36;;;;;;;45.22;16.20;;;;;;;;;;5031489;28;20090;-71
2021/06/29 11:52:04;;;;;;;36.28;14.38;;;;;;;;;;5031481;28;20117;-71
2021/06/29 11:54:32;;;;;;;32.50;13.02;;;;;;;;;;5048300;28;20184;-71
2021/06/29 11:57:01;;;;;;;33.58;13.35;;;;;;;;;;5049366;28;20065;-71
2021/06/29 11:59:28;;;;;;;33.80;13.23;;;;;;;;;;5045230;28;20045;-72
2021/06/29 12:02:03;;;;;;;30.90;12.35;;;;;;;;;;5045494;28;20544;-71
2021/06/29 12:04:30;;;;;;;30.20;12.50;;;;;;;;;;5052406;28;20103;-71
2021/06/29 12:06:58;;;;;;;31.80;12.50;;;;;;;;;;5042830;28;20130;-71
2021/06/29 12:09:28;;;;;;;31.67;13.05;;;;;;;;;;5023732;28;20056;-71
2021/06/29 12:12:19;;;;;;;28.75;12.52;;;;;;;;;;5038813;28;20501;-71
2021/06/29 12:14:45;;;;;;;27.95;11.93;;;;;;;;;;5041009;28;20049;-71
2021/06/29 12:17:11;;;;;;;28.75;11.68;;;;;;;;;;5045172;28;20037;-71
2021/06/29 12:19:39;;;;;;;28.70;10.85;;;;;;;;;;5046418;28;20132;-71
2021/06/29 12:22:06;;;;;;;21.70;10.15;;;;;;;;;;5032781;28;20065;-71
2021/06/29 12:24:32;;;;;;;35.28;11.82;;;;;;;;;;5048995;28;20103;-71
2021/06/29 12:26:58;;;;;;;27.35;11.45;;;;;;;;;;5042436;28;20492;-71
2021/06/29 12:29:29;;;;;;;20.30;10.20;;;;;;;;;;5041907;28;20067;-71
2021/06/29 12:31:55;;;;;;;23.00;10.57;;;;;;;;;;5049281;28;20045;-71
2021/06/29 12:34:22;;;;;;;27.33;11.68;;;;;;;;;;5050446;28;20065;-71
2021/06/29 12:36:48;;;;;;;28.73;12.15;;;;;;;;;;5050328;28;20195;-71
2021/06/29 12:39:14;;;;;;;24.15;11.20;;;;;;;;;;5051500;28;20065;-71
2021/06/29 12:41:42;;;;;;;26.67;11.43;;;;;;;;;;5051304;28;20061;-71
2021/06/29 12:44:10;;;;;;;23.05;10.75;;;;;;;;;;5050479;28;20127;-71
2021/06/29 12:46:39;;;;;;;22.80;10.60;;;;;;;;;;5063879;28;20528;-71
2021/06/29 12:49:11;;;;;;;24.95;11.68;;;;;;;;;;5061453;28;20036;-71
2021/06/29 12:51:38;;;;;;;25.23;11.88;;;;;;;;;;5068484;28;20055;-71
2021/06/29 12:54:06;;;;;;;25.27;11.77;;;;;;;;;;5069895;28;20123;-70
2021/06/29 12:56:39;;;;;;;24.17;12.02;;;;;;;;;;5069305;28;20056;-71
2021/06/29 12:59:07;;;;;;;28.95;11.95;;;;;;;;;;5044309;28;20063;-71
2021/06/29 13:01:34;;;;;;;30.85;13.77;;;;;;;;;;5065843;28;20491;-71
2021/06/29 13:04:08;;;;;;;23.60;11.95;;;;;;;;;;5069809;28;20071;-71
2021/06/29 13:06:34;;;;;;;30.48;12.65;;;;;;;;;;5068498;28;20140;-71
2021/06/29 13:09:09;;;;;;;26.25;11.85;;;;;;;;;;5063696;28;20040;-71
2021/06/29 13:11:35;;;;;;;31.60;12.00;;;;;;;;;;5049693;28;20124;-70
2021/06/29 13:14:04;;;;;;;28.27;11.88;;;;;;;;;;5063858;28;20127;-70
2021/06/29 13:16:30;;;;;;;32.10;12.05;;;;;;;;;;5064624;28;20051;-70
2021/06/29 13:18:57;;;;;;;27.95;10.18;;;;;;;;;;5065370;28;20527;-70
2021/06/29 13:21:28;;;;;;;22.48;11.20;;;;;;;;;;5068705;28;20147;-70
2021/06/29 13:24:04;;;;;;;21.77;11.40;;;;;;;;;;5068855;28;20040;-70
2021/06/29 13:26:31;;;;;;;25.70;10.70;;;;;;;;;;5068282;28;20131;-70
2021/06/29 13:28:59;;;;;;;26.30;11.10;;;;;;;;;;5065710;28;20037;-71
2021/06/29 13:31:26;;;;;;;26.27;10.45;;;;;;;;;;5065796;28;20059;-70
2021/06/29 13:33:52;;;;;;;25.20;10.63;;;;;;;;;;5063541;28;20079;-71
2021/06/29 13:36:26;;;;;;;20.23;10.93;;;;;;;;;;5060492;28;20387;-70
2021/06/29 13:38:58;;;;;;;26.48;11.63;;;;;;;;;;5065006;28;20507;-70
2021/06/29 13:41:32;;;;;;;28.55;12.10;;;;;;;;;;5065504;28;20123;-70
2021/06/29 13:44:07;;;;;;;23.27;12.35;;;;;;;;;;5060461;28;20076;-70
2021/06/29 13:46:34;;;;;;;25.65;11.18;;;;;;;;;;5064197;28;20037;-70
2021/06/29 13:49:13;;;;;;;30.52;12.65;;;;;;;;;;5041134;28;20067;-70
2021/06/29 13:51:39;;;;;;;30.02;13.32;;;;;;;;;;5058649;28;20048;-71
2021/06/29 13:54:17;;;;;;;27.92;12.02;;;;;;;;;;5057667;28;20090;-71
2021/06/29 13:56:43;;;;;;;22.70;11.25;;;;;;;;;;5051251;28;20132;-70
2021/06/29 13:59:20;;;;;;;26.25;12.57;;;;;;;;;;5060652;28;20047;-70
2021/06/29 14:01:53;;;;;;;29.30;12.32;;;;;;;;;;5059029;28;20041;-70
2021/06/29 14:04:20;;;;;;;30.00;13.23;;;;;;;;;;5056847;28;20460;-70
2021/06/29 14:06:46;;;;;;;27.88;12.20;;;;;;;;;;5059491;28;20119;-70
2021/06/29 14:09:13;;;;;;;21.85;10.93;;;;;;;;;;5060422;28;20047;-70
2021/06/29 14:11:40;;;;;;;23.40;11.73;;;;;;;;;;5038559;28;20484;-70
2021/06/29 14:14:09;;;;;;;20.98;10.90;;;;;;;;;;5058836;28;20043;-70
2021/06/29 14:16:35;;;;;;;24.90;10.63;;;;;;;;;;5048563;28;20067;-71
2021/06/29 14:19:01;;;;;;;22.17;10.38;;;;;;;;;;5049090;28;20451;-71
2021/06/29 14:21:29;;;;;;;19.92;9.98;;;;;;;;;;5043354;28;20041;-70
2021/06/29 14:23:56;;;;;;;20.52;10.63;;;;;;;;;;5042393;28;20044;-70
2021/06/29 14:26:23;;;;;;;23.60;10.65;;;;;;;;;;5046523;28;20041;-71